ADDS METAR Data INFO
IDs: Format: Raw Decoded Include TAF

Data at: 1938 UTC 16 Aug 2017

KTOR 161853Z AUTO 33008KT 10SM FEW060 23/07 A3006 RMK AO2 SLP139 T02330067
KTOR 161753Z AUTO 35011G16KT 10SM CLR 23/07 A3006 RMK AO2 SLP140 T02280072 10228 20122 50006
KTOR 161653Z AUTO 34010G18KT 10SM CLR 21/09 A3006 RMK AO2 SLP142 T02110089
KTOR 161553Z AUTO 35010KT 10SM CLR 20/09 A3005 RMK AO2 SLP140 T02000094
KTOR 161453Z AUTO 32009KT 10SM CLR 17/12 A3004 RMK AO2 SLP141 T01720117 51009
KTOR 161353Z AUTO 30008KT 10SM FEW060 15/12 A3004 RMK AO2 SLP139 T01500117
KTOR 161253Z AUTO 29009KT 10SM BKN055 13/11 A3002 RMK AO2 SLP136 T01330111
KTOR 161153Z AUTO 32008KT 10SM CLR 13/11 A3001 RMK AO2 SLP133 70006 T01330111 10156 20133 53001
KTOR 161053Z AUTO 29007KT 10SM CLR 13/13 A2999 RMK AO2 SLP125 T01330128
KTOR 160953Z AUTO 27005KT 10SM FEW060 14/14 A3000 RMK AO2 SLP117 T01390139
KTOR 160853Z AUTO 27004KT 10SM OVC046 15/14 A3001 RMK AO2 SLP116 T01500144 51007
KTOR 160753Z AUTO 00000KT 10SM BKN039 OVC048 16/14 A3001 RMK AO2 SLP116 T01560139
KTOR 160653Z AUTO 36008KT 10SM FEW036 BKN085 OVC110 15/13 A2999 RMK AO2 SLP113 T01500133 402720144
KTOR 160553Z AUTO 33003KT 10SM BKN100 15/13 A2999 RMK AO2 SLP113 T01500133 10178 20144 53012
KTOR 160453Z AUTO 00000KT 10SM CLR 15/13 A2996 RMK AO2 SLP106 T01500133
KTOR 160353Z AUTO 00000KT 10SM CLR 15/13 A2996 RMK AO2 SLP107 T01500133
KTOR 160253Z AUTO 32008KT 10SM FEW110 16/13 A2995 RMK AO2 PRESRR SLP105 T01610133 51019
KTOR 160153Z AUTO 33009KT 10SM FEW110 17/12 A2993 RMK AO2 SLP102 T01670122
KTOR 160053Z AUTO 28006KT 10SM BKN085 BKN110 17/15 A2995 RMK AO2 SLP108 T01720150
KTOR 152353Z AUTO 35008KT 10SM FEW110 18/16 A2988 RMK AO2 WSHFT 2323 LTG DSNT NE-S RAE39 TSE02 PRESRR SLP085 P0004 60006 T01780156 10272 20167 50008
KTOR 152343Z AUTO 35006KT 10SM SCT100 BKN120 17/16 A2987 RMK AO2 WSHFT 2323 LTG DSNT NE-S RAE39 TSE02 PRESRR P0004 T01720156
KTOR 152327Z AUTO 09015KT 10SM -RA BKN095 OVC110 17/14 A2982 RMK AO2 LTG DSNT NE-S TSE02 PRESFR P0004 T01720144
KTOR 152308Z AUTO 35006KT 7SM VCTS RA OVC090 18/13 A2987 RMK AO2 LTG DSNT ALQDS TSE02 P0003 T01780133
KTOR 152253Z AUTO 30016KT 10SM -TSRA SCT065 OVC090 17/13 A2990 RMK AO2 PK WND 24031/2227 LTG DSNT ALQDS RAB27 TSB18 SLP090 P0002 T01720128
KTOR 152224Z AUTO 24019G28KT 10SM TS SCT060 SCT070 BKN090 19/13 A2990 RMK AO2 PK WND 23028/2218 LTG DSNT ALQDS TSB18 T01890128
KTOR 152212Z AUTO 24014G23KT 10SM VCTS FEW055 BKN110 22/12 A2989 RMK AO2 LTG DSNT ALQDS PRESRR T02170117
KTOR 152153Z AUTO 09004KT 10SM FEW120 25/12 A2985 RMK AO2 LTG DSNT S-NW SLP062 T02500122
KTOR 152053Z AUTO 03003KT 10SM CLR 27/11 A2985 RMK AO2 LTG DSNT W SLP059 T02720111 56017
KTOR 151953Z AUTO VRB03KT 10SM CLR 26/11 A2987 RMK AO2 SLP065 T02610111
KTOR 151853Z AUTO VRB05KT 10SM CLR 24/14 A2989 RMK AO2 SLP075 T02440139
KTOR 151753Z AUTO 11007KT 10SM CLR 23/14 A2991 RMK AO2 SLP083 T02330144 10233 20144 56005
KTOR 151653Z AUTO 12007KT 10SM CLR 22/14 A2992 RMK AO2 SLP089 T02220144
KTOR 151553Z AUTO 05009KT 10SM CLR 21/14 A2991 RMK AO2 SLP088 T02060144
KTOR 151453Z AUTO 23003KT 10SM OVC085 18/16 A2993 RMK AO2 LTG DSNT NW SLP095 T01830161 53016
KTOR 151353Z AUTO 17006KT 10SM CLR 17/16 A2989 RMK AO2 SLP081 T01670156
KTOR 151253Z AUTO 00000KT 10SM CLR 15/14 A2986 RMK AO2 SLP071 T01500139
KTOR 151153Z AUTO 30006KT 10SM CLR 15/14 A2987 RMK AO2 SLP079 60003 70028 T01500144 10183 20144 58006
KTOR 151053Z AUTO 18005KT 10SM CLR 15/14 A2988 RMK AO2 SLP072 T01500144
KTOR 150953Z AUTO 36003KT 10SM BKN100 BKN120 17/16 A2989 RMK AO2 SLP066 T01720156
KTOR 150853Z AUTO 00000KT 10SM FEW060 BKN110 17/16 A2989 RMK AO2 RAE20 SLP065 P0000 60003 T01670156 53000
KTOR 150753Z AUTO 07006KT 8SM -RA FEW080 OVC100 17/16 A2990 RMK AO2 RAB16 SLP070 P0003 T01670161